sensor_id;sensor_type;location;lat;lon;timestamp;P1;durP1;ratioP1;P2;durP2;ratioP2
72369;SDS011;60343;-32.030;115.880;2023-02-15T00:01:45;7.97;;;0.98;;
72369;SDS011;60343;-32.030;115.880;2023-02-15T00:04:27;6.20;;;1.08;;
72369;SDS011;60343;-32.030;115.880;2023-02-15T00:07:10;5.57;;;1.15;;
72369;SDS011;60343;-32.030;115.880;2023-02-15T00:09:47;4.10;;;1.00;;
72369;SDS011;60343;-32.030;115.880;2023-02-15T00:12:23;7.03;;;1.00;;
72369;SDS011;60343;-32.030;115.880;2023-02-15T00:14:58;4.82;;;0.80;;
72369;SDS011;60343;-32.030;115.880;2023-02-15T00:17:43;4.70;;;1.00;;
72369;SDS011;60343;-32.030;115.880;2023-02-15T00:20:24;6.93;;;1.10;;
72369;SDS011;60343;-32.030;115.880;2023-02-15T00:23:00;3.85;;;0.93;;
72369;SDS011;60343;-32.030;115.880;2023-02-15T00:25:35;4.80;;;1.00;;
72369;SDS011;60343;-32.030;115.880;2023-02-15T00:28:10;4.13;;;0.73;;
72369;SDS011;60343;-32.030;115.880;2023-02-15T00:30:46;5.32;;;0.90;;
72369;SDS011;60343;-32.030;115.880;2023-02-15T00:33:21;7.18;;;1.20;;
72369;SDS011;60343;-32.030;115.880;2023-02-15T00:36:05;5.47;;;0.98;;
72369;SDS011;60343;-32.030;115.880;2023-02-15T00:38:41;7.15;;;1.00;;
72369;SDS011;60343;-32.030;115.880;2023-02-15T00:41:17;6.35;;;0.90;;
72369;SDS011;60343;-32.030;115.880;2023-02-15T00:43:52;4.88;;;0.95;;
72369;SDS011;60343;-32.030;115.880;2023-02-15T00:46:28;5.28;;;0.90;;
72369;SDS011;60343;-32.030;115.880;2023-02-15T00:49:04;5.30;;;1.00;;
72369;SDS011;60343;-32.030;115.880;2023-02-15T00:51:45;6.55;;;1.00;;
72369;SDS011;60343;-32.030;115.880;2023-02-15T00:54:21;5.10;;;0.90;;
72369;SDS011;60343;-32.030;115.880;2023-02-15T00:56:56;4.78;;;0.85;;
72369;SDS011;60343;-32.030;115.880;2023-02-15T00:59:33;3.42;;;0.80;;
72369;SDS011;60343;-32.030;115.880;2023-02-15T01:02:10;4.28;;;0.80;;
72369;SDS011;60343;-32.030;115.880;2023-02-15T01:04:45;5.88;;;1.02;;
72369;SDS011;60343;-32.030;115.880;2023-02-15T01:07:27;4.85;;;0.80;;
72369;SDS011;60343;-32.030;115.880;2023-02-15T01:10:02;5.53;;;0.82;;
72369;SDS011;60343;-32.030;115.880;2023-02-15T01:12:38;6.40;;;1.05;;
72369;SDS011;60343;-32.030;115.880;2023-02-15T01:15:14;3.47;;;0.80;;
72369;SDS011;60343;-32.030;115.880;2023-02-15T01:17:49;2.70;;;0.77;;
72369;SDS011;60343;-32.030;115.880;2023-02-15T01:20:26;6.65;;;0.70;;
72369;SDS011;60343;-32.030;115.880;2023-02-15T01:23:08;4.38;;;0.95;;
72369;SDS011;60343;-32.030;115.880;2023-02-15T01:25:44;6.25;;;0.90;;
72369;SDS011;60343;-32.030;115.880;2023-02-15T01:28:19;3.97;;;0.90;;
72369;SDS011;60343;-32.030;115.880;2023-02-15T01:30:55;3.60;;;0.70;;
72369;SDS011;60343;-32.030;115.880;2023-02-15T01:33:31;3.95;;;0.80;;
72369;SDS011;60343;-32.030;115.880;2023-02-15T01:36:06;3.70;;;0.80;;
72369;SDS011;60343;-32.030;115.880;2023-02-15T01:38:49;4.38;;;0.98;;
72369;SDS011;60343;-32.030;115.880;2023-02-15T01:41:25;2.28;;;0.70;;
72369;SDS011;60343;-32.030;115.880;2023-02-15T01:44:01;4.22;;;0.80;;
72369;SDS011;60343;-32.030;115.880;2023-02-15T01:46:38;4.13;;;0.73;;
72369;SDS011;60343;-32.030;115.880;2023-02-15T01:49:21;5.55;;;0.90;;
72369;SDS011;60343;-32.030;115.880;2023-02-15T01:52:00;3.13;;;0.85;;
72369;SDS011;60343;-32.030;115.880;2023-02-15T01:54:42;4.68;;;0.80;;
72369;SDS011;60343;-32.030;115.880;2023-02-15T01:57:21;4.00;;;0.77;;
72369;SDS011;60343;-32.030;115.880;2023-02-15T01:59:59;7.00;;;1.00;;
72369;SDS011;60343;-32.030;115.880;2023-02-15T02:02:39;2.65;;;0.82;;
72369;SDS011;60343;-32.030;115.880;2023-02-15T02:05:16;5.45;;;0.75;;
72369;SDS011;60343;-32.030;115.880;2023-02-15T02:07:52;5.68;;;0.73;;
72369;SDS011;60343;-32.030;115.880;2023-02-15T02:10:35;7.13;;;0.90;;
72369;SDS011;60343;-32.030;115.880;2023-02-15T02:13:11;9.27;;;1.00;;
72369;SDS011;60343;-32.030;115.880;2023-02-15T02:15:47;3.97;;;0.88;;
72369;SDS011;60343;-32.030;115.880;2023-02-15T02:18:33;5.72;;;1.00;;
72369;SDS011;60343;-32.030;115.880;2023-02-15T02:21:21;6.18;;;0.77;;
72369;SDS011;60343;-32.030;115.880;2023-02-15T02:24:21;5.88;;;0.80;;
72369;SDS011;60343;-32.030;115.880;2023-02-15T02:27:24;4.97;;;0.82;;
72369;SDS011;60343;-32.030;115.880;2023-02-15T02:30:15;4.47;;;0.88;;
72369;SDS011;60343;-32.030;115.880;2023-02-15T02:33:14;3.60;;;0.90;;
72369;SDS011;60343;-32.030;115.880;2023-02-15T02:36:08;6.25;;;0.95;;
72369;SDS011;60343;-32.030;115.880;2023-02-15T02:39:00;4.47;;;1.00;;
72369;SDS011;60343;-32.030;115.880;2023-02-15T02:41:49;6.82;;;0.90;;
72369;SDS011;60343;-32.030;115.880;2023-02-15T02:44:31;3.67;;;0.80;;
72369;SDS011;60343;-32.030;115.880;2023-02-15T02:47:18;4.20;;;0.77;;
72369;SDS011;60343;-32.030;115.880;2023-02-15T02:50:06;3.60;;;0.80;;
72369;SDS011;60343;-32.030;115.880;2023-02-15T02:52:44;4.72;;;0.88;;
72369;SDS011;60343;-32.030;115.880;2023-02-15T02:55:21;3.20;;;0.60;;
72369;SDS011;60343;-32.030;115.880;2023-02-15T02:58:04;2.88;;;0.70;;
72369;SDS011;60343;-32.030;115.880;2023-02-15T03:00:51;3.63;;;0.80;;
72369;SDS011;60343;-32.030;115.880;2023-02-15T03:03:34;4.63;;;0.70;;
72369;SDS011;60343;-32.030;115.880;2023-02-15T03:09:29;3.78;;;0.80;;
72369;SDS011;60343;-32.030;115.880;2023-02-15T03:12:08;4.80;;;0.80;;
72369;SDS011;60343;-32.030;115.880;2023-02-15T03:14:46;5.50;;;0.88;;
72369;SDS011;60343;-32.030;115.880;2023-02-15T03:17:26;5.60;;;0.70;;
72369;SDS011;60343;-32.030;115.880;2023-02-15T03:20:06;3.70;;;0.90;;
72369;SDS011;60343;-32.030;115.880;2023-02-15T03:22:53;4.82;;;0.90;;
72369;SDS011;60343;-32.030;115.880;2023-02-15T03:25:33;4.45;;;0.80;;
72369;SDS011;60343;-32.030;115.880;2023-02-15T03:28:13;3.92;;;0.80;;
72369;SDS011;60343;-32.030;115.880;2023-02-15T03:30:56;4.85;;;0.88;;
72369;SDS011;60343;-32.030;115.880;2023-02-15T03:33:35;5.82;;;1.30;;
72369;SDS011;60343;-32.030;115.880;2023-02-15T03:36:17;5.25;;;0.77;;
72369;SDS011;60343;-32.030;115.880;2023-02-15T03:39:03;7.38;;;0.93;;
72369;SDS011;60343;-32.030;115.880;2023-02-15T03:41:45;2.75;;;0.70;;
72369;SDS011;60343;-32.030;115.880;2023-02-15T03:44:30;6.47;;;1.00;;
72369;SDS011;60343;-32.030;115.880;2023-02-15T03:47:11;4.93;;;1.08;;
72369;SDS011;60343;-32.030;115.880;2023-02-15T03:49:54;3.05;;;0.68;;
72369;SDS011;60343;-32.030;115.880;2023-02-15T03:52:52;2.90;;;0.90;;
72369;SDS011;60343;-32.030;115.880;2023-02-15T03:55:35;5.55;;;0.70;;
72369;SDS011;60343;-32.030;115.880;2023-02-15T03:58:12;3.25;;;0.70;;
72369;SDS011;60343;-32.030;115.880;2023-02-15T04:00:57;3.90;;;0.90;;
72369;SDS011;60343;-32.030;115.880;2023-02-15T04:03:59;5.30;;;0.90;;
72369;SDS011;60343;-32.030;115.880;2023-02-15T04:06:40;3.28;;;0.60;;
72369;SDS011;60343;-32.030;115.880;2023-02-15T04:09:16;3.17;;;0.82;;
72369;SDS011;60343;-32.030;115.880;2023-02-15T04:12:05;5.72;;;1.00;;
72369;SDS011;60343;-32.030;115.880;2023-02-15T04:14:41;5.10;;;0.77;;
72369;SDS011;60343;-32.030;115.880;2023-02-15T04:17:25;5.82;;;1.00;;
72369;SDS011;60343;-32.030;115.880;2023-02-15T04:20:01;4.65;;;0.70;;
72369;SDS011;60343;-32.030;115.880;2023-02-15T04:22:44;4.43;;;0.73;;
72369;SDS011;60343;-32.030;115.880;2023-02-15T04:25:27;4.72;;;1.20;;
72369;SDS011;60343;-32.030;115.880;2023-02-15T04:28:09;3.72;;;0.80;;
72369;SDS011;60343;-32.030;115.880;2023-02-15T04:30:48;2.63;;;0.80;;
72369;SDS011;60343;-32.030;115.880;2023-02-15T04:33:23;4.68;;;0.90;;
72369;SDS011;60343;-32.030;115.880;2023-02-15T04:36:02;3.88;;;0.80;;
72369;SDS011;60343;-32.030;115.880;2023-02-15T04:38:38;3.85;;;0.80;;
72369;SDS011;60343;-32.030;115.880;2023-02-15T04:41:14;4.00;;;0.80;;
72369;SDS011;60343;-32.030;115.880;2023-02-15T04:43:55;4.18;;;0.80;;
72369;SDS011;60343;-32.030;115.880;2023-02-15T04:46:32;5.00;;;0.90;;
72369;SDS011;60343;-32.030;115.880;2023-02-15T04:49:08;3.45;;;0.70;;
72369;SDS011;60343;-32.030;115.880;2023-02-15T04:51:47;2.83;;;0.60;;
72369;SDS011;60343;-32.030;115.880;2023-02-15T04:54:22;1.67;;;0.40;;
72369;SDS011;60343;-32.030;115.880;2023-02-15T04:56:58;3.28;;;0.50;;
72369;SDS011;60343;-32.030;115.880;2023-02-15T04:59:40;2.22;;;0.60;;
72369;SDS011;60343;-32.030;115.880;2023-02-15T05:02:15;2.13;;;0.50;;
72369;SDS011;60343;-32.030;115.880;2023-02-15T05:04:51;6.43;;;0.70;;
72369;SDS011;60343;-32.030;115.880;2023-02-15T05:07:26;2.85;;;0.70;;
72369;SDS011;60343;-32.030;115.880;2023-02-15T05:10:02;3.92;;;0.80;;
72369;SDS011;60343;-32.030;115.880;2023-02-15T05:12:39;5.00;;;0.60;;
72369;SDS011;60343;-32.030;115.880;2023-02-15T05:15:20;7.50;;;0.90;;
72369;SDS011;60343;-32.030;115.880;2023-02-15T05:17:59;2.60;;;0.70;;
72369;SDS011;60343;-32.030;115.880;2023-02-15T05:20:35;4.22;;;0.80;;
72369;SDS011;60343;-32.030;115.880;2023-02-15T05:23:10;5.43;;;0.77;;
72369;SDS011;60343;-32.030;115.880;2023-02-15T05:25:49;2.80;;;0.80;;
72369;SDS011;60343;-32.030;115.880;2023-02-15T05:28:32;3.75;;;0.70;;
72369;SDS011;60343;-32.030;115.880;2023-02-15T05:31:17;4.63;;;0.88;;
72369;SDS011;60343;-32.030;115.880;2023-02-15T05:33:57;3.63;;;1.00;;
72369;SDS011;60343;-32.030;115.880;2023-02-15T05:36:34;5.82;;;0.85;;
72369;SDS011;60343;-32.030;115.880;2023-02-15T05:39:09;3.90;;;0.95;;
72369;SDS011;60343;-32.030;115.880;2023-02-15T05:44:21;3.85;;;0.70;;
72369;SDS011;60343;-32.030;115.880;2023-02-15T05:47:03;2.85;;;0.75;;
72369;SDS011;60343;-32.030;115.880;2023-02-15T05:49:44;2.70;;;0.60;;
72369;SDS011;60343;-32.030;115.880;2023-02-15T05:52:20;2.60;;;0.70;;
72369;SDS011;60343;-32.030;115.880;2023-02-15T05:54:56;4.57;;;0.90;;
72369;SDS011;60343;-32.030;115.880;2023-02-15T05:57:32;1.83;;;0.55;;
72369;SDS011;60343;-32.030;115.880;2023-02-15T06:00:08;3.85;;;0.98;;
72369;SDS011;60343;-32.030;115.880;2023-02-15T06:05:25;3.30;;;0.60;;
72369;SDS011;60343;-32.030;115.880;2023-02-15T06:08:01;4.55;;;0.75;;
72369;SDS011;60343;-32.030;115.880;2023-02-15T06:10:37;3.25;;;0.60;;
72369;SDS011;60343;-32.030;115.880;2023-02-15T06:13:14;3.28;;;0.65;;
72369;SDS011;60343;-32.030;115.880;2023-02-15T06:15:49;2.40;;;0.52;;
72369;SDS011;60343;-32.030;115.880;2023-02-15T06:18:31;3.85;;;0.60;;
72369;SDS011;60343;-32.030;115.880;2023-02-15T06:21:08;2.85;;;0.60;;
72369;SDS011;60343;-32.030;115.880;2023-02-15T06:23:45;3.90;;;0.65;;
72369;SDS011;60343;-32.030;115.880;2023-02-15T06:26:20;3.28;;;0.50;;
72369;SDS011;60343;-32.030;115.880;2023-02-15T06:29:13;3.10;;;0.60;;
72369;SDS011;60343;-32.030;115.880;2023-02-15T06:32:02;2.80;;;0.43;;
72369;SDS011;60343;-32.030;115.880;2023-02-15T06:34:44;5.63;;;0.70;;
72369;SDS011;60343;-32.030;115.880;2023-02-15T06:37:20;2.17;;;0.50;;
72369;SDS011;60343;-32.030;115.880;2023-02-15T06:39:55;1.60;;;0.50;;
72369;SDS011;60343;-32.030;115.880;2023-02-15T06:42:31;4.70;;;0.70;;
72369;SDS011;60343;-32.030;115.880;2023-02-15T06:45:07;2.15;;;0.47;;
72369;SDS011;60343;-32.030;115.880;2023-02-15T06:47:44;3.13;;;0.50;;
72369;SDS011;60343;-32.030;115.880;2023-02-15T06:50:26;2.72;;;0.57;;
72369;SDS011;60343;-32.030;115.880;2023-02-15T06:53:02;4.53;;;0.60;;
72369;SDS011;60343;-32.030;115.880;2023-02-15T06:55:39;2.78;;;1.00;;
72369;SDS011;60343;-32.030;115.880;2023-02-15T06:58:15;2.80;;;0.65;;
72369;SDS011;60343;-32.030;115.880;2023-02-15T07:00:52;1.50;;;0.57;;
72369;SDS011;60343;-32.030;115.880;2023-02-15T07:03:27;5.07;;;0.50;;
72369;SDS011;60343;-32.030;115.880;2023-02-15T07:06:09;2.58;;;0.43;;
72369;SDS011;60343;-32.030;115.880;2023-02-15T07:08:46;1.88;;;0.35;;
72369;SDS011;60343;-32.030;115.880;2023-02-15T07:11:22;1.75;;;0.40;;
72369;SDS011;60343;-32.030;115.880;2023-02-15T07:14:05;4.00;;;0.52;;
72369;SDS011;60343;-32.030;115.880;2023-02-15T07:16:41;4.45;;;0.43;;
72369;SDS011;60343;-32.030;115.880;2023-02-15T07:19:18;2.05;;;0.40;;
72369;SDS011;60343;-32.030;115.880;2023-02-15T07:22:00;2.70;;;0.35;;
72369;SDS011;60343;-32.030;115.880;2023-02-15T07:24:36;2.20;;;0.28;;
72369;SDS011;60343;-32.030;115.880;2023-02-15T07:27:18;1.70;;;0.40;;
72369;SDS011;60343;-32.030;115.880;2023-02-15T07:29:54;4.38;;;0.55;;
72369;SDS011;60343;-32.030;115.880;2023-02-15T07:32:31;2.28;;;0.40;;
72369;SDS011;60343;-32.030;115.880;2023-02-15T07:35:27;2.42;;;0.50;;
72369;SDS011;60343;-32.030;115.880;2023-02-15T07:38:09;1.58;;;0.30;;
72369;SDS011;60343;-32.030;115.880;2023-02-15T07:40:44;1.83;;;0.35;;
72369;SDS011;60343;-32.030;115.880;2023-02-15T07:43:21;1.83;;;0.35;;
72369;SDS011;60343;-32.030;115.880;2023-02-15T07:45:59;3.80;;;0.50;;
72369;SDS011;60343;-32.030;115.880;2023-02-15T07:48:36;3.17;;;0.40;;
72369;SDS011;60343;-32.030;115.880;2023-02-15T07:51:13;3.25;;;0.40;;
72369;SDS011;60343;-32.030;115.880;2023-02-15T07:53:54;2.85;;;0.40;;
72369;SDS011;60343;-32.030;115.880;2023-02-15T07:56:30;1.80;;;0.40;;
72369;SDS011;60343;-32.030;115.880;2023-02-15T07:59:05;4.55;;;0.43;;
72369;SDS011;60343;-32.030;115.880;2023-02-15T08:01:41;2.30;;;0.40;;
72369;SDS011;60343;-32.030;115.880;2023-02-15T08:04:19;4.00;;;0.50;;
72369;SDS011;60343;-32.030;115.880;2023-02-15T08:06:55;2.97;;;0.40;;
72369;SDS011;60343;-32.030;115.880;2023-02-15T08:09:37;7.43;;;0.52;;
72369;SDS011;60343;-32.030;115.880;2023-02-15T08:12:13;2.75;;;0.40;;
72369;SDS011;60343;-32.030;115.880;2023-02-15T08:14:51;3.90;;;0.50;;
72369;SDS011;60343;-32.030;115.880;2023-02-15T08:17:27;2.33;;;0.30;;
72369;SDS011;60343;-32.030;115.880;2023-02-15T08:20:03;6.13;;;0.75;;
72369;SDS011;60343;-32.030;115.880;2023-02-15T08:22:42;2.67;;;0.57;;
72369;SDS011;60343;-32.030;115.880;2023-02-15T08:25:26;3.85;;;0.38;;
72369;SDS011;60343;-32.030;115.880;2023-02-15T08:28:04;2.10;;;0.30;;
72369;SDS011;60343;-32.030;115.880;2023-02-15T08:30:42;2.67;;;0.40;;
72369;SDS011;60343;-32.030;115.880;2023-02-15T08:33:17;3.75;;;0.63;;
72369;SDS011;60343;-32.030;115.880;2023-02-15T08:35:53;4.40;;;0.60;;
72369;SDS011;60343;-32.030;115.880;2023-02-15T08:38:28;3.92;;;0.50;;
72369;SDS011;60343;-32.030;115.880;2023-02-15T08:41:18;2.83;;;0.50;;
72369;SDS011;60343;-32.030;115.880;2023-02-15T08:43:56;2.78;;;0.43;;
72369;SDS011;60343;-32.030;115.880;2023-02-15T08:46:33;5.30;;;0.40;;
72369;SDS011;60343;-32.030;115.880;2023-02-15T08:51:45;4.57;;;0.50;;
72369;SDS011;60343;-32.030;115.880;2023-02-15T08:54:22;4.63;;;0.40;;
72369;SDS011;60343;-32.030;115.880;2023-02-15T08:57:05;3.22;;;0.45;;
72369;SDS011;60343;-32.030;115.880;2023-02-15T08:59:40;3.67;;;0.45;;
72369;SDS011;60343;-32.030;115.880;2023-02-15T09:02:17;4.95;;;0.60;;
72369;SDS011;60343;-32.030;115.880;2023-02-15T09:04:54;4.28;;;0.82;;
72369;SDS011;60343;-32.030;115.880;2023-02-15T09:07:30;3.28;;;0.28;;
72369;SDS011;60343;-32.030;115.880;2023-02-15T09:10:06;1.85;;;0.40;;
72369;SDS011;60343;-32.030;115.880;2023-02-15T09:12:48;2.92;;;0.47;;
72369;SDS011;60343;-32.030;115.880;2023-02-15T09:15:23;3.50;;;0.38;;
72369;SDS011;60343;-32.030;115.880;2023-02-15T09:17:59;3.95;;;0.50;;
72369;SDS011;60343;-32.030;115.880;2023-02-15T09:20:35;6.70;;;0.40;;
72369;SDS011;60343;-32.030;115.880;2023-02-15T09:23:11;2.97;;;0.32;;
72369;SDS011;60343;-32.030;115.880;2023-02-15T09:25:49;2.33;;;0.38;;
72369;SDS011;60343;-32.030;115.880;2023-02-15T09:28:30;2.33;;;0.32;;
72369;SDS011;60343;-32.030;115.880;2023-02-15T09:31:07;4.97;;;0.40;;
72369;SDS011;60343;-32.030;115.880;2023-02-15T09:33:51;2.55;;;0.28;;
72369;SDS011;60343;-32.030;115.880;2023-02-15T09:36:28;3.60;;;0.40;;
72369;SDS011;60343;-32.030;115.880;2023-02-15T09:39:06;2.28;;;0.40;;
72369;SDS011;60343;-32.030;115.880;2023-02-15T09:45:07;3.28;;;0.40;;
72369;SDS011;60343;-32.030;115.880;2023-02-15T09:48:03;4.38;;;0.57;;
72369;SDS011;60343;-32.030;115.880;2023-02-15T09:50:56;3.05;;;0.40;;
72369;SDS011;60343;-32.030;115.880;2023-02-15T09:53:46;2.17;;;0.50;;
72369;SDS011;60343;-32.030;115.880;2023-02-15T09:56:38;5.88;;;0.60;;
72369;SDS011;60343;-32.030;115.880;2023-02-15T09:59:21;1.98;;;0.50;;
72369;SDS011;60343;-32.030;115.880;2023-02-15T10:02:17;3.63;;;0.40;;
72369;SDS011;60343;-32.030;115.880;2023-02-15T10:05:13;2.08;;;0.30;;
72369;SDS011;60343;-32.030;115.880;2023-02-15T10:08:04;3.55;;;0.40;;
72369;SDS011;60343;-32.030;115.880;2023-02-15T10:10:57;5.05;;;0.50;;
72369;SDS011;60343;-32.030;115.880;2023-02-15T10:13:52;3.22;;;0.40;;
72369;SDS011;60343;-32.030;115.880;2023-02-15T10:16:39;6.05;;;0.80;;
72369;SDS011;60343;-32.030;115.880;2023-02-15T10:22:12;4.32;;;0.70;;
72369;SDS011;60343;-32.030;115.880;2023-02-15T10:25:00;2.35;;;0.43;;
72369;SDS011;60343;-32.030;115.880;2023-02-15T10:27:48;5.25;;;0.50;;
72369;SDS011;60343;-32.030;115.880;2023-02-15T10:30:25;3.25;;;0.40;;
72369;SDS011;60343;-32.030;115.880;2023-02-15T10:33:09;5.68;;;0.60;;
72369;SDS011;60343;-32.030;115.880;2023-02-15T10:36:05;2.25;;;0.40;;
72369;SDS011;60343;-32.030;115.880;2023-02-15T10:38:56;4.45;;;0.40;;
72369;SDS011;60343;-32.030;115.880;2023-02-15T10:41:41;2.10;;;0.32;;
72369;SDS011;60343;-32.030;115.880;2023-02-15T10:44:31;2.70;;;0.52;;
72369;SDS011;60343;-32.030;115.880;2023-02-15T10:47:18;4.03;;;0.60;;
72369;SDS011;60343;-32.030;115.880;2023-02-15T10:50:08;5.15;;;0.60;;
72369;SDS011;60343;-32.030;115.880;2023-02-15T10:53:07;1.95;;;0.50;;
72369;SDS011;60343;-32.030;115.880;2023-02-15T10:55:54;4.55;;;0.57;;
72369;SDS011;60343;-32.030;115.880;2023-02-15T10:58:38;4.40;;;0.60;;
72369;SDS011;60343;-32.030;115.880;2023-02-15T11:01:23;3.75;;;0.47;;
72369;SDS011;60343;-32.030;115.880;2023-02-15T11:04:08;2.85;;;0.30;;
72369;SDS011;60343;-32.030;115.880;2023-02-15T11:07:03;2.92;;;0.45;;
72369;SDS011;60343;-32.030;115.880;2023-02-15T11:12:30;3.72;;;0.80;;
72369;SDS011;60343;-32.030;115.880;2023-02-15T11:15:11;3.75;;;0.50;;
72369;SDS011;60343;-32.030;115.880;2023-02-15T11:17:56;7.68;;;0.50;;
72369;SDS011;60343;-32.030;115.880;2023-02-15T11:20:42;3.83;;;0.63;;
72369;SDS011;60343;-32.030;115.880;2023-02-15T11:23:29;2.75;;;0.43;;
72369;SDS011;60343;-32.030;115.880;2023-02-15T11:26:16;2.35;;;0.50;;
72369;SDS011;60343;-32.030;115.880;2023-02-15T11:29:00;4.00;;;0.50;;
72369;SDS011;60343;-32.030;115.880;2023-02-15T11:31:46;4.82;;;0.40;;
72369;SDS011;60343;-32.030;115.880;2023-02-15T11:34:25;5.80;;;0.63;;
72369;SDS011;60343;-32.030;115.880;2023-02-15T11:37:06;4.47;;;0.60;;
72369;SDS011;60343;-32.030;115.880;2023-02-15T11:39:45;2.20;;;0.38;;
72369;SDS011;60343;-32.030;115.880;2023-02-15T11:42:34;3.95;;;0.50;;
72369;SDS011;60343;-32.030;115.880;2023-02-15T11:45:16;5.25;;;0.70;;
72369;SDS011;60343;-32.030;115.880;2023-02-15T11:47:55;6.32;;;0.80;;
72369;SDS011;60343;-32.030;115.880;2023-02-15T11:50:32;4.30;;;0.80;;
72369;SDS011;60343;-32.030;115.880;2023-02-15T11:53:17;3.50;;;0.77;;
72369;SDS011;60343;-32.030;115.880;2023-02-15T11:55:56;6.70;;;0.60;;
72369;SDS011;60343;-32.030;115.880;2023-02-15T11:58:43;7.18;;;0.57;;
72369;SDS011;60343;-32.030;115.880;2023-02-15T12:01:27;5.78;;;0.60;;
72369;SDS011;60343;-32.030;115.880;2023-02-15T12:04:09;4.72;;;0.60;;
72369;SDS011;60343;-32.030;115.880;2023-02-15T12:06:53;2.60;;;0.40;;
72369;SDS011;60343;-32.030;115.880;2023-02-15T12:09:36;4.18;;;0.57;;
72369;SDS011;60343;-32.030;115.880;2023-02-15T12:12:20;2.10;;;0.55;;
72369;SDS011;60343;-32.030;115.880;2023-02-15T12:15:05;5.10;;;0.80;;
72369;SDS011;60343;-32.030;115.880;2023-02-15T12:17:48;4.43;;;0.40;;
72369;SDS011;60343;-32.030;115.880;2023-02-15T12:20:29;5.80;;;0.85;;
72369;SDS011;60343;-32.030;115.880;2023-02-15T12:23:11;4.55;;;0.50;;
72369;SDS011;60343;-32.030;115.880;2023-02-15T12:25:50;4.30;;;0.60;;
72369;SDS011;60343;-32.030;115.880;2023-02-15T12:28:30;3.65;;;0.50;;
72369;SDS011;60343;-32.030;115.880;2023-02-15T12:31:20;3.00;;;0.60;;
72369;SDS011;60343;-32.030;115.880;2023-02-15T12:33:59;3.65;;;0.68;;
72369;SDS011;60343;-32.030;115.880;2023-02-15T12:36:47;5.13;;;0.30;;
72369;SDS011;60343;-32.030;115.880;2023-02-15T12:39:28;5.65;;;1.00;;
72369;SDS011;60343;-32.030;115.880;2023-02-15T12:42:13;6.50;;;0.80;;
72369;SDS011;60343;-32.030;115.880;2023-02-15T12:44:54;6.95;;;0.52;;
72369;SDS011;60343;-32.030;115.880;2023-02-15T12:47:39;2.80;;;0.52;;
72369;SDS011;60343;-32.030;115.880;2023-02-15T12:50:15;6.28;;;0.85;;
72369;SDS011;60343;-32.030;115.880;2023-02-15T12:53:06;2.45;;;0.55;;
72369;SDS011;60343;-32.030;115.880;2023-02-15T12:55:53;4.07;;;0.68;;
72369;SDS011;60343;-32.030;115.880;2023-02-15T12:58:29;3.47;;;0.50;;
72369;SDS011;60343;-32.030;115.880;2023-02-15T13:01:12;3.25;;;0.47;;
72369;SDS011;60343;-32.030;115.880;2023-02-15T13:04:01;3.40;;;0.52;;
72369;SDS011;60343;-32.030;115.880;2023-02-15T13:06:44;2.25;;;0.40;;
72369;SDS011;60343;-32.030;115.880;2023-02-15T13:09:25;4.82;;;0.68;;
72369;SDS011;60343;-32.030;115.880;2023-02-15T13:12:17;2.38;;;0.43;;
72369;SDS011;60343;-32.030;115.880;2023-02-15T13:15:00;5.18;;;0.77;;
72369;SDS011;60343;-32.030;115.880;2023-02-15T13:17:36;2.15;;;0.50;;
72369;SDS011;60343;-32.030;115.880;2023-02-15T13:20:26;3.13;;;0.60;;
72369;SDS011;60343;-32.030;115.880;2023-02-15T13:23:03;7.70;;;0.60;;
72369;SDS011;60343;-32.030;115.880;2023-02-15T13:25:43;6.45;;;0.55;;
72369;SDS011;60343;-32.030;115.880;2023-02-15T13:28:22;4.72;;;0.93;;
72369;SDS011;60343;-32.030;115.880;2023-02-15T13:31:01;2.97;;;0.40;;
72369;SDS011;60343;-32.030;115.880;2023-02-15T13:33:42;4.32;;;0.50;;
72369;SDS011;60343;-32.030;115.880;2023-02-15T13:36:30;3.53;;;0.52;;
72369;SDS011;60343;-32.030;115.880;2023-02-15T13:39:19;2.70;;;0.60;;
72369;SDS011;60343;-32.030;115.880;2023-02-15T13:42:05;3.95;;;0.50;;
72369;SDS011;60343;-32.030;115.880;2023-02-15T13:45:04;4.60;;;0.57;;
72369;SDS011;60343;-32.030;115.880;2023-02-15T13:48:07;2.95;;;0.40;;
72369;SDS011;60343;-32.030;115.880;2023-02-15T13:56:45;3.35;;;0.43;;
72369;SDS011;60343;-32.030;115.880;2023-02-15T13:59:31;5.13;;;0.70;;
72369;SDS011;60343;-32.030;115.880;2023-02-15T14:02:28;5.65;;;0.80;;
72369;SDS011;60343;-32.030;115.880;2023-02-15T14:05:33;2.80;;;0.50;;
72369;SDS011;60343;-32.030;115.880;2023-02-15T14:08:45;3.22;;;0.40;;
72369;SDS011;60343;-32.030;115.880;2023-02-15T14:11:48;2.67;;;0.50;;
72369;SDS011;60343;-32.030;115.880;2023-02-15T14:14:43;2.40;;;0.43;;
72369;SDS011;60343;-32.030;115.880;2023-02-15T14:17:38;3.33;;;0.55;;
72369;SDS011;60343;-32.030;115.880;2023-02-15T14:20:31;3.72;;;0.50;;
72369;SDS011;60343;-32.030;115.880;2023-02-15T14:23:25;4.50;;;0.52;;
72369;SDS011;60343;-32.030;115.880;2023-02-15T14:26:21;3.13;;;0.85;;
72369;SDS011;60343;-32.030;115.880;2023-02-15T14:29:10;6.22;;;0.80;;
72369;SDS011;60343;-32.030;115.880;2023-02-15T14:31:54;5.45;;;0.82;;
72369;SDS011;60343;-32.030;115.880;2023-02-15T14:34:44;6.03;;;0.80;;
72369;SDS011;60343;-32.030;115.880;2023-02-15T14:37:39;6.07;;;0.63;;
72369;SDS011;60343;-32.030;115.880;2023-02-15T14:40:26;4.65;;;0.60;;
72369;SDS011;60343;-32.030;115.880;2023-02-15T14:43:27;4.72;;;0.75;;
72369;SDS011;60343;-32.030;115.880;2023-02-15T14:46:30;7.07;;;0.50;;
72369;SDS011;60343;-32.030;115.880;2023-02-15T14:49:12;5.47;;;0.50;;
72369;SDS011;60343;-32.030;115.880;2023-02-15T14:51:57;2.42;;;0.45;;
72369;SDS011;60343;-32.030;115.880;2023-02-15T14:57:32;3.85;;;0.55;;
72369;SDS011;60343;-32.030;115.880;2023-02-15T15:03:23;5.82;;;0.73;;
72369;SDS011;60343;-32.030;115.880;2023-02-15T15:06:03;2.35;;;0.52;;
72369;SDS011;60343;-32.030;115.880;2023-02-15T15:08:58;4.25;;;0.80;;
72369;SDS011;60343;-32.030;115.880;2023-02-15T15:12:06;4.47;;;0.60;;
72369;SDS011;60343;-32.030;115.880;2023-02-15T15:14:50;5.47;;;0.68;;
72369;SDS011;60343;-32.030;115.880;2023-02-15T15:20:51;5.35;;;0.70;;
72369;SDS011;60343;-32.030;115.880;2023-02-15T15:23:42;4.75;;;0.73;;
72369;SDS011;60343;-32.030;115.880;2023-02-15T15:26:29;3.42;;;0.50;;
72369;SDS011;60343;-32.030;115.880;2023-02-15T15:29:13;5.68;;;0.80;;
72369;SDS011;60343;-32.030;115.880;2023-02-15T15:32:08;3.60;;;0.60;;
72369;SDS011;60343;-32.030;115.880;2023-02-15T15:34:58;2.90;;;0.60;;
72369;SDS011;60343;-32.030;115.880;2023-02-15T15:38:09;3.25;;;0.50;;
72369;SDS011;60343;-32.030;115.880;2023-02-15T15:41:05;3.53;;;0.40;;
72369;SDS011;60343;-32.030;115.880;2023-02-15T15:47:18;2.00;;;0.40;;
72369;SDS011;60343;-32.030;115.880;2023-02-15T15:50:11;3.72;;;0.63;;
72369;SDS011;60343;-32.030;115.880;2023-02-15T15:52:57;4.53;;;0.40;;
72369;SDS011;60343;-32.030;115.880;2023-02-15T15:58:20;4.95;;;0.43;;
72369;SDS011;60343;-32.030;115.880;2023-02-15T16:03:38;2.88;;;0.70;;
72369;SDS011;60343;-32.030;115.880;2023-02-15T16:06:28;4.25;;;0.60;;
72369;SDS011;60343;-32.030;115.880;2023-02-15T16:09:13;2.55;;;0.50;;
72369;SDS011;60343;-32.030;115.880;2023-02-15T16:11:59;5.38;;;0.70;;
72369;SDS011;60343;-32.030;115.880;2023-02-15T16:14:35;4.63;;;0.65;;
72369;SDS011;60343;-32.030;115.880;2023-02-15T16:17:20;7.05;;;0.63;;
72369;SDS011;60343;-32.030;115.880;2023-02-15T16:20:06;3.22;;;0.60;;